X  CloseMetar Aviation Weather Data     EGGD Bristol International

Temperature

10°C Temperature

6°C Dewpoint

76% Humidity



Wind

 8 KM/H

 5 MPH

 2 M/S

 4 KTS



30°
North North
East
Current Conditions

Overcast Overcast
Pressure 1021.92 (hPa) - 30.18 (in)
Visibility 6.2 (mi) - 10 (km)
Airport
Airport-code EGGD

Location Bristol International 9 (mi)

Metar:
EGGD 211750Z AUTO 03004KT 350V060 9999 OVC047 10/06 Q1022

Time: 2019-10-21 18:50